sensor_id;sensor_type;location;lat;lon;timestamp;P1;durP1;ratioP1;P2;durP2;ratioP2
4011;SDS011;2020;48.682;9.024;2023-11-19T00:00:26;1.80;;;1.80;;
4011;SDS011;2020;48.682;9.024;2023-11-19T00:02:52;2.13;;;2.07;;
4011;SDS011;2020;48.682;9.024;2023-11-19T00:05:17;2.30;;;2.20;;
4011;SDS011;2020;48.682;9.024;2023-11-19T00:07:43;1.63;;;1.53;;
4011;SDS011;2020;48.682;9.024;2023-11-19T00:10:09;1.70;;;1.60;;
4011;SDS011;2020;48.682;9.024;2023-11-19T00:12:40;1.93;;;1.83;;
4011;SDS011;2020;48.682;9.024;2023-11-19T00:15:07;2.83;;;2.73;;
4011;SDS011;2020;48.682;9.024;2023-11-19T00:17:36;1.87;;;1.80;;
4011;SDS011;2020;48.682;9.024;2023-11-19T00:20:03;2.03;;;1.93;;
4011;SDS011;2020;48.682;9.024;2023-11-19T00:22:30;2.33;;;2.13;;
4011;SDS011;2020;48.682;9.024;2023-11-19T00:24:56;2.10;;;2.00;;
4011;SDS011;2020;48.682;9.024;2023-11-19T00:27:21;1.40;;;1.40;;
4011;SDS011;2020;48.682;9.024;2023-11-19T00:29:47;2.80;;;2.70;;
4011;SDS011;2020;48.682;9.024;2023-11-19T00:32:12;2.40;;;2.30;;
4011;SDS011;2020;48.682;9.024;2023-11-19T00:34:37;1.67;;;1.67;;
4011;SDS011;2020;48.682;9.024;2023-11-19T00:37:03;1.87;;;1.80;;
4011;SDS011;2020;48.682;9.024;2023-11-19T00:39:28;1.80;;;1.70;;
4011;SDS011;2020;48.682;9.024;2023-11-19T00:41:54;2.03;;;1.93;;
4011;SDS011;2020;48.682;9.024;2023-11-19T00:44:19;1.67;;;1.67;;
4011;SDS011;2020;48.682;9.024;2023-11-19T00:46:44;1.70;;;1.60;;
4011;SDS011;2020;48.682;9.024;2023-11-19T00:49:10;1.40;;;1.40;;
4011;SDS011;2020;48.682;9.024;2023-11-19T00:51:36;0.97;;;0.97;;
4011;SDS011;2020;48.682;9.024;2023-11-19T00:54:02;1.20;;;1.20;;
4011;SDS011;2020;48.682;9.024;2023-11-19T00:56:28;0.97;;;0.97;;
4011;SDS011;2020;48.682;9.024;2023-11-19T00:58:53;3.60;;;1.03;;
4011;SDS011;2020;48.682;9.024;2023-11-19T01:01:19;1.20;;;1.10;;
4011;SDS011;2020;48.682;9.024;2023-11-19T01:03:44;1.43;;;1.13;;
4011;SDS011;2020;48.682;9.024;2023-11-19T01:06:09;1.13;;;1.00;;
4011;SDS011;2020;48.682;9.024;2023-11-19T01:08:34;0.90;;;0.90;;
4011;SDS011;2020;48.682;9.024;2023-11-19T01:11:01;0.80;;;0.80;;
4011;SDS011;2020;48.682;9.024;2023-11-19T01:13:27;1.27;;;1.27;;
4011;SDS011;2020;48.682;9.024;2023-11-19T01:15:52;0.87;;;0.87;;
4011;SDS011;2020;48.682;9.024;2023-11-19T01:18:18;0.87;;;0.87;;
4011;SDS011;2020;48.682;9.024;2023-11-19T01:20:43;0.70;;;0.70;;
4011;SDS011;2020;48.682;9.024;2023-11-19T01:23:08;1.50;;;1.07;;
4011;SDS011;2020;48.682;9.024;2023-11-19T01:25:33;0.80;;;0.80;;
4011;SDS011;2020;48.682;9.024;2023-11-19T01:28:00;1.20;;;1.10;;
4011;SDS011;2020;48.682;9.024;2023-11-19T01:30:27;0.60;;;0.60;;
4011;SDS011;2020;48.682;9.024;2023-11-19T01:32:52;1.33;;;0.80;;
4011;SDS011;2020;48.682;9.024;2023-11-19T01:35:18;0.80;;;0.80;;
4011;SDS011;2020;48.682;9.024;2023-11-19T01:37:43;0.97;;;0.97;;
4011;SDS011;2020;48.682;9.024;2023-11-19T01:40:08;0.77;;;0.77;;
4011;SDS011;2020;48.682;9.024;2023-11-19T01:42:37;2.23;;;1.00;;
4011;SDS011;2020;48.682;9.024;2023-11-19T01:45:06;0.90;;;0.90;;
4011;SDS011;2020;48.682;9.024;2023-11-19T01:47:33;1.13;;;1.13;;
4011;SDS011;2020;48.682;9.024;2023-11-19T01:50:00;0.70;;;0.70;;
4011;SDS011;2020;48.682;9.024;2023-11-19T01:52:26;0.50;;;0.50;;
4011;SDS011;2020;48.682;9.024;2023-11-19T01:54:52;0.60;;;0.60;;
4011;SDS011;2020;48.682;9.024;2023-11-19T01:57:20;0.57;;;0.50;;
4011;SDS011;2020;48.682;9.024;2023-11-19T01:59:48;0.60;;;0.60;;
4011;SDS011;2020;48.682;9.024;2023-11-19T02:02:17;2.50;;;0.53;;
4011;SDS011;2020;48.682;9.024;2023-11-19T02:04:45;0.50;;;0.50;;
4011;SDS011;2020;48.682;9.024;2023-11-19T02:07:13;0.60;;;0.60;;
4011;SDS011;2020;48.682;9.024;2023-11-19T02:09:41;0.40;;;0.40;;
4011;SDS011;2020;48.682;9.024;2023-11-19T02:12:07;0.40;;;0.40;;
4011;SDS011;2020;48.682;9.024;2023-11-19T02:14:33;0.40;;;0.40;;
4011;SDS011;2020;48.682;9.024;2023-11-19T02:16:58;0.40;;;0.40;;
4011;SDS011;2020;48.682;9.024;2023-11-19T02:19:23;0.40;;;0.40;;
4011;SDS011;2020;48.682;9.024;2023-11-19T02:21:49;0.40;;;0.40;;
4011;SDS011;2020;48.682;9.024;2023-11-19T02:24:14;0.40;;;0.40;;
4011;SDS011;2020;48.682;9.024;2023-11-19T02:27:08;0.63;;;0.63;;
4011;SDS011;2020;48.682;9.024;2023-11-19T02:29:36;0.50;;;0.50;;
4011;SDS011;2020;48.682;9.024;2023-11-19T02:32:01;0.40;;;0.40;;
4011;SDS011;2020;48.682;9.024;2023-11-19T02:34:27;0.40;;;0.40;;
4011;SDS011;2020;48.682;9.024;2023-11-19T02:36:52;0.50;;;0.50;;
4011;SDS011;2020;48.682;9.024;2023-11-19T02:39:18;0.33;;;0.33;;
4011;SDS011;2020;48.682;9.024;2023-11-19T02:41:46;0.47;;;0.47;;
4011;SDS011;2020;48.682;9.024;2023-11-19T02:44:12;0.40;;;0.40;;
4011;SDS011;2020;48.682;9.024;2023-11-19T02:46:38;0.40;;;0.40;;
4011;SDS011;2020;48.682;9.024;2023-11-19T02:49:03;0.50;;;0.50;;
4011;SDS011;2020;48.682;9.024;2023-11-19T02:51:29;0.33;;;0.33;;
4011;SDS011;2020;48.682;9.024;2023-11-19T02:53:55;0.40;;;0.40;;
4011;SDS011;2020;48.682;9.024;2023-11-19T02:56:20;0.40;;;0.40;;
4011;SDS011;2020;48.682;9.024;2023-11-19T02:58:50;0.57;;;0.57;;
4011;SDS011;2020;48.682;9.024;2023-11-19T03:01:23;0.40;;;0.40;;
4011;SDS011;2020;48.682;9.024;2023-11-19T03:04:00;0.40;;;0.40;;
4011;SDS011;2020;48.682;9.024;2023-11-19T03:06:27;0.50;;;0.50;;
4011;SDS011;2020;48.682;9.024;2023-11-19T03:08:54;0.40;;;0.40;;
4011;SDS011;2020;48.682;9.024;2023-11-19T03:11:20;1.27;;;0.40;;
4011;SDS011;2020;48.682;9.024;2023-11-19T03:13:45;0.50;;;0.50;;
4011;SDS011;2020;48.682;9.024;2023-11-19T03:16:11;0.33;;;0.33;;
4011;SDS011;2020;48.682;9.024;2023-11-19T03:18:37;0.40;;;0.40;;
4011;SDS011;2020;48.682;9.024;2023-11-19T03:21:04;0.40;;;0.40;;
4011;SDS011;2020;48.682;9.024;2023-11-19T03:23:29;0.40;;;0.40;;
4011;SDS011;2020;48.682;9.024;2023-11-19T03:25:55;0.60;;;0.50;;
4011;SDS011;2020;48.682;9.024;2023-11-19T03:28:22;0.87;;;0.60;;
4011;SDS011;2020;48.682;9.024;2023-11-19T03:30:47;0.57;;;0.57;;
4011;SDS011;2020;48.682;9.024;2023-11-19T03:33:12;0.70;;;0.40;;
4011;SDS011;2020;48.682;9.024;2023-11-19T03:35:37;0.40;;;0.40;;
4011;SDS011;2020;48.682;9.024;2023-11-19T03:38:03;0.37;;;0.37;;
4011;SDS011;2020;48.682;9.024;2023-11-19T03:40:28;0.40;;;0.40;;
4011;SDS011;2020;48.682;9.024;2023-11-19T03:42:55;0.50;;;0.50;;
4011;SDS011;2020;48.682;9.024;2023-11-19T03:45:22;0.30;;;0.30;;
4011;SDS011;2020;48.682;9.024;2023-11-19T03:47:47;0.50;;;0.50;;
4011;SDS011;2020;48.682;9.024;2023-11-19T03:50:14;0.40;;;0.40;;
4011;SDS011;2020;48.682;9.024;2023-11-19T03:52:40;0.40;;;0.40;;
4011;SDS011;2020;48.682;9.024;2023-11-19T03:55:06;0.40;;;0.40;;
4011;SDS011;2020;48.682;9.024;2023-11-19T03:57:33;0.30;;;0.30;;
4011;SDS011;2020;48.682;9.024;2023-11-19T03:59:58;0.30;;;0.30;;
4011;SDS011;2020;48.682;9.024;2023-11-19T04:02:24;0.30;;;0.30;;
4011;SDS011;2020;48.682;9.024;2023-11-19T04:04:52;0.30;;;0.30;;
4011;SDS011;2020;48.682;9.024;2023-11-19T04:07:18;0.40;;;0.40;;
4011;SDS011;2020;48.682;9.024;2023-11-19T04:09:43;0.30;;;0.30;;
4011;SDS011;2020;48.682;9.024;2023-11-19T04:12:08;0.40;;;0.40;;
4011;SDS011;2020;48.682;9.024;2023-11-19T04:14:33;0.40;;;0.40;;
4011;SDS011;2020;48.682;9.024;2023-11-19T04:16:59;0.30;;;0.30;;
4011;SDS011;2020;48.682;9.024;2023-11-19T04:19:24;0.30;;;0.30;;
4011;SDS011;2020;48.682;9.024;2023-11-19T04:21:49;0.30;;;0.30;;
4011;SDS011;2020;48.682;9.024;2023-11-19T04:24:14;0.30;;;0.30;;
4011;SDS011;2020;48.682;9.024;2023-11-19T04:26:40;1.70;;;0.40;;
4011;SDS011;2020;48.682;9.024;2023-11-19T04:29:08;1.10;;;0.40;;
4011;SDS011;2020;48.682;9.024;2023-11-19T04:31:37;0.53;;;0.53;;
4011;SDS011;2020;48.682;9.024;2023-11-19T04:34:02;0.70;;;0.70;;
4011;SDS011;2020;48.682;9.024;2023-11-19T04:36:27;0.67;;;0.67;;
4011;SDS011;2020;48.682;9.024;2023-11-19T04:38:54;0.50;;;0.50;;
4011;SDS011;2020;48.682;9.024;2023-11-19T04:41:19;0.70;;;0.50;;
4011;SDS011;2020;48.682;9.024;2023-11-19T04:43:45;0.50;;;0.50;;
4011;SDS011;2020;48.682;9.024;2023-11-19T04:46:10;0.40;;;0.40;;
4011;SDS011;2020;48.682;9.024;2023-11-19T04:48:35;0.60;;;0.60;;
4011;SDS011;2020;48.682;9.024;2023-11-19T04:51:01;0.50;;;0.50;;
4011;SDS011;2020;48.682;9.024;2023-11-19T04:53:26;0.60;;;0.60;;
4011;SDS011;2020;48.682;9.024;2023-11-19T04:55:51;0.50;;;0.50;;
4011;SDS011;2020;48.682;9.024;2023-11-19T04:58:17;0.43;;;0.43;;
4011;SDS011;2020;48.682;9.024;2023-11-19T05:00:42;0.40;;;0.40;;
4011;SDS011;2020;48.682;9.024;2023-11-19T05:03:07;0.57;;;0.57;;
4011;SDS011;2020;48.682;9.024;2023-11-19T05:05:33;0.50;;;0.50;;
4011;SDS011;2020;48.682;9.024;2023-11-19T05:07:58;0.40;;;0.40;;
4011;SDS011;2020;48.682;9.024;2023-11-19T05:10:24;0.50;;;0.50;;
4011;SDS011;2020;48.682;9.024;2023-11-19T05:12:49;0.50;;;0.50;;
4011;SDS011;2020;48.682;9.024;2023-11-19T05:15:15;0.43;;;0.43;;
4011;SDS011;2020;48.682;9.024;2023-11-19T05:17:40;0.40;;;0.40;;
4011;SDS011;2020;48.682;9.024;2023-11-19T05:20:05;0.40;;;0.40;;
4011;SDS011;2020;48.682;9.024;2023-11-19T05:22:38;0.40;;;0.40;;
4011;SDS011;2020;48.682;9.024;2023-11-19T05:25:04;0.40;;;0.40;;
4011;SDS011;2020;48.682;9.024;2023-11-19T05:27:30;0.60;;;0.60;;
4011;SDS011;2020;48.682;9.024;2023-11-19T05:29:56;0.97;;;0.40;;
4011;SDS011;2020;48.682;9.024;2023-11-19T05:32:21;0.50;;;0.40;;
4011;SDS011;2020;48.682;9.024;2023-11-19T05:34:46;0.60;;;0.60;;
4011;SDS011;2020;48.682;9.024;2023-11-19T05:37:11;0.40;;;0.40;;
4011;SDS011;2020;48.682;9.024;2023-11-19T05:39:37;0.50;;;0.50;;
4011;SDS011;2020;48.682;9.024;2023-11-19T05:42:02;0.50;;;0.50;;
4011;SDS011;2020;48.682;9.024;2023-11-19T05:44:27;0.50;;;0.50;;
4011;SDS011;2020;48.682;9.024;2023-11-19T05:46:53;1.27;;;1.13;;
4011;SDS011;2020;48.682;9.024;2023-11-19T05:49:18;0.50;;;0.50;;
4011;SDS011;2020;48.682;9.024;2023-11-19T05:51:43;0.50;;;0.50;;
4011;SDS011;2020;48.682;9.024;2023-11-19T05:54:09;0.57;;;0.57;;
4011;SDS011;2020;48.682;9.024;2023-11-19T05:56:35;0.40;;;0.40;;
4011;SDS011;2020;48.682;9.024;2023-11-19T05:59:01;0.40;;;0.40;;
4011;SDS011;2020;48.682;9.024;2023-11-19T06:01:28;0.50;;;0.50;;
4011;SDS011;2020;48.682;9.024;2023-11-19T06:03:56;0.60;;;0.60;;
4011;SDS011;2020;48.682;9.024;2023-11-19T06:06:21;0.60;;;0.60;;
4011;SDS011;2020;48.682;9.024;2023-11-19T06:08:47;0.40;;;0.40;;
4011;SDS011;2020;48.682;9.024;2023-11-19T06:11:12;0.40;;;0.40;;
4011;SDS011;2020;48.682;9.024;2023-11-19T06:13:42;0.40;;;0.40;;
4011;SDS011;2020;48.682;9.024;2023-11-19T06:16:08;0.50;;;0.50;;
4011;SDS011;2020;48.682;9.024;2023-11-19T06:18:33;1.13;;;0.47;;
4011;SDS011;2020;48.682;9.024;2023-11-19T06:20:59;0.70;;;0.70;;
4011;SDS011;2020;48.682;9.024;2023-11-19T06:23:24;0.60;;;0.40;;
4011;SDS011;2020;48.682;9.024;2023-11-19T06:25:49;0.40;;;0.40;;
4011;SDS011;2020;48.682;9.024;2023-11-19T06:28:14;0.83;;;0.50;;
4011;SDS011;2020;48.682;9.024;2023-11-19T06:30:40;0.40;;;0.40;;
4011;SDS011;2020;48.682;9.024;2023-11-19T06:33:06;0.43;;;0.43;;
4011;SDS011;2020;48.682;9.024;2023-11-19T06:35:32;0.50;;;0.50;;
4011;SDS011;2020;48.682;9.024;2023-11-19T06:38:01;0.40;;;0.40;;
4011;SDS011;2020;48.682;9.024;2023-11-19T06:40:30;0.47;;;0.47;;
4011;SDS011;2020;48.682;9.024;2023-11-19T06:42:56;0.40;;;0.40;;
4011;SDS011;2020;48.682;9.024;2023-11-19T06:45:21;0.40;;;0.40;;
4011;SDS011;2020;48.682;9.024;2023-11-19T06:47:46;0.93;;;0.70;;
4011;SDS011;2020;48.682;9.024;2023-11-19T06:50:12;0.40;;;0.40;;
4011;SDS011;2020;48.682;9.024;2023-11-19T06:52:37;0.53;;;0.53;;
4011;SDS011;2020;48.682;9.024;2023-11-19T06:55:03;0.50;;;0.50;;
4011;SDS011;2020;48.682;9.024;2023-11-19T06:57:28;0.40;;;0.40;;
4011;SDS011;2020;48.682;9.024;2023-11-19T06:59:55;0.40;;;0.40;;
4011;SDS011;2020;48.682;9.024;2023-11-19T07:02:22;0.50;;;0.50;;
4011;SDS011;2020;48.682;9.024;2023-11-19T07:04:47;0.50;;;0.50;;
4011;SDS011;2020;48.682;9.024;2023-11-19T07:07:12;0.77;;;0.77;;
4011;SDS011;2020;48.682;9.024;2023-11-19T07:09:39;0.60;;;0.60;;
4011;SDS011;2020;48.682;9.024;2023-11-19T07:12:05;0.47;;;0.47;;
4011;SDS011;2020;48.682;9.024;2023-11-19T07:14:30;0.77;;;0.60;;
4011;SDS011;2020;48.682;9.024;2023-11-19T07:16:56;0.50;;;0.50;;
4011;SDS011;2020;48.682;9.024;2023-11-19T07:19:21;0.50;;;0.50;;
4011;SDS011;2020;48.682;9.024;2023-11-19T07:21:46;0.50;;;0.50;;
4011;SDS011;2020;48.682;9.024;2023-11-19T07:24:12;0.53;;;0.50;;
4011;SDS011;2020;48.682;9.024;2023-11-19T07:26:41;0.60;;;0.60;;
4011;SDS011;2020;48.682;9.024;2023-11-19T07:29:10;0.87;;;0.50;;
4011;SDS011;2020;48.682;9.024;2023-11-19T07:31:35;0.63;;;0.63;;
4011;SDS011;2020;48.682;9.024;2023-11-19T07:34:02;0.40;;;0.40;;
4011;SDS011;2020;48.682;9.024;2023-11-19T07:36:27;0.60;;;0.60;;
4011;SDS011;2020;48.682;9.024;2023-11-19T07:38:52;0.47;;;0.47;;
4011;SDS011;2020;48.682;9.024;2023-11-19T07:41:18;0.50;;;0.50;;
4011;SDS011;2020;48.682;9.024;2023-11-19T07:43:43;0.47;;;0.47;;
4011;SDS011;2020;48.682;9.024;2023-11-19T07:46:12;0.40;;;0.40;;
4011;SDS011;2020;48.682;9.024;2023-11-19T07:48:39;0.50;;;0.50;;
4011;SDS011;2020;48.682;9.024;2023-11-19T07:51:05;0.40;;;0.40;;
4011;SDS011;2020;48.682;9.024;2023-11-19T07:53:30;0.50;;;0.50;;
4011;SDS011;2020;48.682;9.024;2023-11-19T07:55:55;0.50;;;0.50;;
4011;SDS011;2020;48.682;9.024;2023-11-19T07:58:21;0.50;;;0.50;;
4011;SDS011;2020;48.682;9.024;2023-11-19T08:00:46;2.43;;;0.50;;
4011;SDS011;2020;48.682;9.024;2023-11-19T08:03:11;0.50;;;0.50;;
4011;SDS011;2020;48.682;9.024;2023-11-19T08:05:36;1.23;;;0.50;;
4011;SDS011;2020;48.682;9.024;2023-11-19T08:08:02;0.50;;;0.50;;
4011;SDS011;2020;48.682;9.024;2023-11-19T08:10:27;0.50;;;0.50;;
4011;SDS011;2020;48.682;9.024;2023-11-19T08:12:53;0.60;;;0.60;;
4011;SDS011;2020;48.682;9.024;2023-11-19T08:15:19;0.50;;;0.50;;
4011;SDS011;2020;48.682;9.024;2023-11-19T08:17:44;0.50;;;0.50;;
4011;SDS011;2020;48.682;9.024;2023-11-19T08:20:09;0.53;;;0.53;;
4011;SDS011;2020;48.682;9.024;2023-11-19T08:22:36;1.23;;;1.13;;
4011;SDS011;2020;48.682;9.024;2023-11-19T08:25:03;1.40;;;0.90;;
4011;SDS011;2020;48.682;9.024;2023-11-19T08:27:29;5.20;;;4.53;;
4011;SDS011;2020;48.682;9.024;2023-11-19T08:29:54;3.40;;;3.17;;
4011;SDS011;2020;48.682;9.024;2023-11-19T08:32:23;3.37;;;3.00;;
4011;SDS011;2020;48.682;9.024;2023-11-19T08:34:49;1.33;;;1.10;;
4011;SDS011;2020;48.682;9.024;2023-11-19T08:37:14;0.90;;;0.90;;
4011;SDS011;2020;48.682;9.024;2023-11-19T08:39:40;0.50;;;0.50;;
4011;SDS011;2020;48.682;9.024;2023-11-19T08:42:07;0.70;;;0.70;;
4011;SDS011;2020;48.682;9.024;2023-11-19T08:44:32;0.60;;;0.60;;
4011;SDS011;2020;48.682;9.024;2023-11-19T08:46:57;0.77;;;0.77;;
4011;SDS011;2020;48.682;9.024;2023-11-19T08:49:22;0.60;;;0.60;;
4011;SDS011;2020;48.682;9.024;2023-11-19T08:51:48;0.70;;;0.70;;
4011;SDS011;2020;48.682;9.024;2023-11-19T08:54:13;0.97;;;0.97;;
4011;SDS011;2020;48.682;9.024;2023-11-19T08:56:39;0.53;;;0.53;;
4011;SDS011;2020;48.682;9.024;2023-11-19T08:59:04;0.60;;;0.60;;
4011;SDS011;2020;48.682;9.024;2023-11-19T09:01:30;1.20;;;1.20;;
4011;SDS011;2020;48.682;9.024;2023-11-19T09:03:55;0.80;;;0.80;;
4011;SDS011;2020;48.682;9.024;2023-11-19T09:06:20;1.37;;;1.37;;
4011;SDS011;2020;48.682;9.024;2023-11-19T09:08:45;1.47;;;1.03;;
4011;SDS011;2020;48.682;9.024;2023-11-19T09:11:11;1.10;;;1.10;;
4011;SDS011;2020;48.682;9.024;2023-11-19T09:13:36;0.60;;;0.60;;
4011;SDS011;2020;48.682;9.024;2023-11-19T09:16:02;1.30;;;0.70;;
4011;SDS011;2020;48.682;9.024;2023-11-19T09:18:28;0.60;;;0.60;;
4011;SDS011;2020;48.682;9.024;2023-11-19T09:20:54;0.80;;;0.80;;
4011;SDS011;2020;48.682;9.024;2023-11-19T09:23:19;0.90;;;0.90;;
4011;SDS011;2020;48.682;9.024;2023-11-19T09:25:45;0.70;;;0.70;;
4011;SDS011;2020;48.682;9.024;2023-11-19T09:28:10;0.93;;;0.93;;
4011;SDS011;2020;48.682;9.024;2023-11-19T09:30:35;0.60;;;0.60;;
4011;SDS011;2020;48.682;9.024;2023-11-19T09:33:00;0.60;;;0.60;;
4011;SDS011;2020;48.682;9.024;2023-11-19T09:35:26;0.70;;;0.70;;
4011;SDS011;2020;48.682;9.024;2023-11-19T09:37:51;0.53;;;0.50;;
4011;SDS011;2020;48.682;9.024;2023-11-19T09:40:16;0.60;;;0.60;;
4011;SDS011;2020;48.682;9.024;2023-11-19T09:42:43;0.60;;;0.60;;
4011;SDS011;2020;48.682;9.024;2023-11-19T09:45:15;0.67;;;0.67;;
4011;SDS011;2020;48.682;9.024;2023-11-19T09:47:43;5.70;;;1.10;;
4011;SDS011;2020;48.682;9.024;2023-11-19T09:50:11;1.63;;;0.70;;
4011;SDS011;2020;48.682;9.024;2023-11-19T09:52:41;1.50;;;0.70;;
4011;SDS011;2020;48.682;9.024;2023-11-19T09:55:06;0.80;;;0.80;;
4011;SDS011;2020;48.682;9.024;2023-11-19T09:57:32;0.70;;;0.70;;
4011;SDS011;2020;48.682;9.024;2023-11-19T09:59:59;0.80;;;0.73;;
4011;SDS011;2020;48.682;9.024;2023-11-19T10:02:24;0.90;;;0.90;;
4011;SDS011;2020;48.682;9.024;2023-11-19T10:04:53;0.93;;;0.70;;
4011;SDS011;2020;48.682;9.024;2023-11-19T10:07:20;0.50;;;0.50;;
4011;SDS011;2020;48.682;9.024;2023-11-19T10:09:46;0.60;;;0.60;;
4011;SDS011;2020;48.682;9.024;2023-11-19T10:12:12;0.40;;;0.40;;
4011;SDS011;2020;48.682;9.024;2023-11-19T10:14:37;0.50;;;0.50;;
4011;SDS011;2020;48.682;9.024;2023-11-19T10:17:04;6.53;;;0.60;;
4011;SDS011;2020;48.682;9.024;2023-11-19T10:19:32;0.60;;;0.50;;
4011;SDS011;2020;48.682;9.024;2023-11-19T10:22:02;0.87;;;0.50;;
4011;SDS011;2020;48.682;9.024;2023-11-19T10:24:32;0.43;;;0.43;;
4011;SDS011;2020;48.682;9.024;2023-11-19T10:26:59;0.60;;;0.60;;
4011;SDS011;2020;48.682;9.024;2023-11-19T10:29:25;0.80;;;0.80;;
4011;SDS011;2020;48.682;9.024;2023-11-19T10:31:57;0.60;;;0.60;;
4011;SDS011;2020;48.682;9.024;2023-11-19T10:34:24;0.50;;;0.50;;
4011;SDS011;2020;48.682;9.024;2023-11-19T10:36:50;0.50;;;0.50;;
4011;SDS011;2020;48.682;9.024;2023-11-19T10:39:15;0.50;;;0.40;;
4011;SDS011;2020;48.682;9.024;2023-11-19T10:41:41;0.40;;;0.40;;
4011;SDS011;2020;48.682;9.024;2023-11-19T10:44:06;0.50;;;0.40;;
4011;SDS011;2020;48.682;9.024;2023-11-19T10:46:41;0.60;;;0.50;;
4011;SDS011;2020;48.682;9.024;2023-11-19T10:49:08;0.70;;;0.70;;
4011;SDS011;2020;48.682;9.024;2023-11-19T10:51:34;0.60;;;0.60;;
4011;SDS011;2020;48.682;9.024;2023-11-19T10:54:03;0.63;;;0.60;;
4011;SDS011;2020;48.682;9.024;2023-11-19T10:56:33;0.60;;;0.60;;
4011;SDS011;2020;48.682;9.024;2023-11-19T10:58:59;0.40;;;0.40;;
4011;SDS011;2020;48.682;9.024;2023-11-19T11:01:26;1.07;;;0.50;;
4011;SDS011;2020;48.682;9.024;2023-11-19T11:03:58;1.67;;;0.70;;
4011;SDS011;2020;48.682;9.024;2023-11-19T11:06:25;0.63;;;0.63;;
4011;SDS011;2020;48.682;9.024;2023-11-19T11:08:51;1.07;;;0.60;;
4011;SDS011;2020;48.682;9.024;2023-11-19T11:11:17;2.50;;;0.70;;
4011;SDS011;2020;48.682;9.024;2023-11-19T11:13:46;0.70;;;0.70;;
4011;SDS011;2020;48.682;9.024;2023-11-19T11:16:12;0.50;;;0.50;;
4011;SDS011;2020;48.682;9.024;2023-11-19T11:18:39;0.70;;;0.70;;
4011;SDS011;2020;48.682;9.024;2023-11-19T11:21:11;0.60;;;0.60;;
4011;SDS011;2020;48.682;9.024;2023-11-19T11:29:13;0.70;;;0.50;;
4011;SDS011;2020;48.682;9.024;2023-11-19T11:40:16;0.67;;;0.50;;
4011;SDS011;2020;48.682;9.024;2023-11-19T11:42:46;0.60;;;0.60;;
4011;SDS011;2020;48.682;9.024;2023-11-19T11:45:12;0.60;;;0.60;;
4011;SDS011;2020;48.682;9.024;2023-11-19T11:50:06;0.70;;;0.70;;
4011;SDS011;2020;48.682;9.024;2023-11-19T11:52:33;0.70;;;0.70;;
4011;SDS011;2020;48.682;9.024;2023-11-19T11:55:05;0.60;;;0.60;;
4011;SDS011;2020;48.682;9.024;2023-11-19T11:57:36;1.07;;;0.50;;
4011;SDS011;2020;48.682;9.024;2023-11-19T12:00:02;0.50;;;0.50;;
4011;SDS011;2020;48.682;9.024;2023-11-19T12:02:30;0.50;;;0.50;;
4011;SDS011;2020;48.682;9.024;2023-11-19T12:04:55;0.50;;;0.50;;
4011;SDS011;2020;48.682;9.024;2023-11-19T12:07:22;0.60;;;0.60;;
4011;SDS011;2020;48.682;9.024;2023-11-19T12:09:51;1.07;;;0.60;;
4011;SDS011;2020;48.682;9.024;2023-11-19T12:12:22;0.50;;;0.50;;
4011;SDS011;2020;48.682;9.024;2023-11-19T12:15:01;0.60;;;0.60;;
4011;SDS011;2020;48.682;9.024;2023-11-19T12:20:01;0.50;;;0.50;;
4011;SDS011;2020;48.682;9.024;2023-11-19T12:22:26;2.27;;;0.60;;
4011;SDS011;2020;48.682;9.024;2023-11-19T12:24:55;0.70;;;0.57;;
4011;SDS011;2020;48.682;9.024;2023-11-19T12:27:21;1.37;;;0.40;;
4011;SDS011;2020;48.682;9.024;2023-11-19T12:29:51;0.53;;;0.53;;
4011;SDS011;2020;48.682;9.024;2023-11-19T12:32:16;0.60;;;0.60;;
4011;SDS011;2020;48.682;9.024;2023-11-19T12:34:42;1.43;;;0.60;;
4011;SDS011;2020;48.682;9.024;2023-11-19T12:37:07;1.23;;;0.70;;
4011;SDS011;2020;48.682;9.024;2023-11-19T12:39:34;0.60;;;0.60;;
4011;SDS011;2020;48.682;9.024;2023-11-19T12:41:59;0.70;;;0.70;;
4011;SDS011;2020;48.682;9.024;2023-11-19T12:44:25;0.70;;;0.70;;
4011;SDS011;2020;48.682;9.024;2023-11-19T12:49:32;0.50;;;0.50;;
4011;SDS011;2020;48.682;9.024;2023-11-19T12:51:58;1.53;;;0.60;;
4011;SDS011;2020;48.682;9.024;2023-11-19T12:54:37;0.60;;;0.47;;
4011;SDS011;2020;48.682;9.024;2023-11-19T12:57:03;0.50;;;0.50;;
4011;SDS011;2020;48.682;9.024;2023-11-19T12:59:29;0.43;;;0.43;;
4011;SDS011;2020;48.682;9.024;2023-11-19T13:01:58;0.50;;;0.50;;
4011;SDS011;2020;48.682;9.024;2023-11-19T13:04:28;0.50;;;0.50;;
4011;SDS011;2020;48.682;9.024;2023-11-19T13:06:56;1.53;;;0.60;;
4011;SDS011;2020;48.682;9.024;2023-11-19T13:09:28;0.57;;;0.50;;
4011;SDS011;2020;48.682;9.024;2023-11-19T13:11:54;0.60;;;0.60;;
4011;SDS011;2020;48.682;9.024;2023-11-19T13:14:21;0.77;;;0.47;;
4011;SDS011;2020;48.682;9.024;2023-11-19T13:16:46;0.83;;;0.50;;
4011;SDS011;2020;48.682;9.024;2023-11-19T13:19:12;0.50;;;0.50;;
4011;SDS011;2020;48.682;9.024;2023-11-19T13:21:38;0.93;;;0.70;;
4011;SDS011;2020;48.682;9.024;2023-11-19T13:24:05;1.03;;;0.50;;
4011;SDS011;2020;48.682;9.024;2023-11-19T13:26:31;0.47;;;0.47;;
4011;SDS011;2020;48.682;9.024;2023-11-19T13:28:56;1.37;;;0.50;;
4011;SDS011;2020;48.682;9.024;2023-11-19T13:31:22;0.60;;;0.60;;
4011;SDS011;2020;48.682;9.024;2023-11-19T13:33:47;0.60;;;0.60;;
4011;SDS011;2020;48.682;9.024;2023-11-19T13:36:12;1.07;;;0.50;;
4011;SDS011;2020;48.682;9.024;2023-11-19T13:38:38;1.47;;;0.60;;
4011;SDS011;2020;48.682;9.024;2023-11-19T13:41:04;0.60;;;0.60;;
4011;SDS011;2020;48.682;9.024;2023-11-19T13:43:30;0.50;;;0.50;;
4011;SDS011;2020;48.682;9.024;2023-11-19T13:45:56;0.60;;;0.60;;
4011;SDS011;2020;48.682;9.024;2023-11-19T13:48:23;0.70;;;0.70;;
4011;SDS011;2020;48.682;9.024;2023-11-19T13:50:49;0.57;;;0.50;;
4011;SDS011;2020;48.682;9.024;2023-11-19T13:53:15;0.60;;;0.60;;
4011;SDS011;2020;48.682;9.024;2023-11-19T13:55:41;1.33;;;0.57;;
4011;SDS011;2020;48.682;9.024;2023-11-19T13:58:07;1.63;;;0.50;;
4011;SDS011;2020;48.682;9.024;2023-11-19T14:00:32;0.60;;;0.60;;
4011;SDS011;2020;48.682;9.024;2023-11-19T14:02:57;0.57;;;0.57;;
4011;SDS011;2020;48.682;9.024;2023-11-19T14:05:23;0.50;;;0.50;;
4011;SDS011;2020;48.682;9.024;2023-11-19T14:07:48;0.90;;;0.60;;
4011;SDS011;2020;48.682;9.024;2023-11-19T14:10:15;0.97;;;0.50;;
4011;SDS011;2020;48.682;9.024;2023-11-19T14:12:41;0.60;;;0.57;;
4011;SDS011;2020;48.682;9.024;2023-11-19T14:15:06;0.50;;;0.50;;
4011;SDS011;2020;48.682;9.024;2023-11-19T14:17:34;1.70;;;0.50;;
4011;SDS011;2020;48.682;9.024;2023-11-19T14:20:01;0.70;;;0.60;;
4011;SDS011;2020;48.682;9.024;2023-11-19T14:22:28;0.80;;;0.67;;
4011;SDS011;2020;48.682;9.024;2023-11-19T14:24:53;0.73;;;0.73;;
4011;SDS011;2020;48.682;9.024;2023-11-19T14:27:20;0.60;;;0.60;;
4011;SDS011;2020;48.682;9.024;2023-11-19T14:29:46;0.50;;;0.50;;
4011;SDS011;2020;48.682;9.024;2023-11-19T14:32:11;0.50;;;0.50;;
4011;SDS011;2020;48.682;9.024;2023-11-19T14:34:36;0.60;;;0.60;;
4011;SDS011;2020;48.682;9.024;2023-11-19T14:37:02;0.80;;;0.70;;
4011;SDS011;2020;48.682;9.024;2023-11-19T14:39:27;1.23;;;0.40;;
4011;SDS011;2020;48.682;9.024;2023-11-19T14:41:55;0.80;;;0.80;;
4011;SDS011;2020;48.682;9.024;2023-11-19T14:44:23;0.60;;;0.60;;
4011;SDS011;2020;48.682;9.024;2023-11-19T14:46:49;0.50;;;0.50;;
4011;SDS011;2020;48.682;9.024;2023-11-19T14:49:14;0.60;;;0.60;;
4011;SDS011;2020;48.682;9.024;2023-11-19T14:51:39;1.70;;;0.50;;
4011;SDS011;2020;48.682;9.024;2023-11-19T14:54:05;0.53;;;0.53;;
4011;SDS011;2020;48.682;9.024;2023-11-19T14:56:30;1.20;;;0.50;;
4011;SDS011;2020;48.682;9.024;2023-11-19T14:58:55;0.60;;;0.60;;
4011;SDS011;2020;48.682;9.024;2023-11-19T15:01:21;0.77;;;0.60;;
4011;SDS011;2020;48.682;9.024;2023-11-19T15:03:46;0.60;;;0.60;;
4011;SDS011;2020;48.682;9.024;2023-11-19T15:06:11;0.60;;;0.60;;
4011;SDS011;2020;48.682;9.024;2023-11-19T15:08:37;0.70;;;0.70;;
4011;SDS011;2020;48.682;9.024;2023-11-19T15:11:02;0.50;;;0.50;;
4011;SDS011;2020;48.682;9.024;2023-11-19T15:13:29;0.53;;;0.53;;
4011;SDS011;2020;48.682;9.024;2023-11-19T15:15:55;0.50;;;0.50;;
4011;SDS011;2020;48.682;9.024;2023-11-19T15:18:21;0.50;;;0.50;;
4011;SDS011;2020;48.682;9.024;2023-11-19T15:20:46;0.70;;;0.70;;
4011;SDS011;2020;48.682;9.024;2023-11-19T15:23:12;0.50;;;0.50;;
4011;SDS011;2020;48.682;9.024;2023-11-19T15:25:38;0.50;;;0.50;;
4011;SDS011;2020;48.682;9.024;2023-11-19T15:28:04;0.60;;;0.60;;
4011;SDS011;2020;48.682;9.024;2023-11-19T15:30:29;0.63;;;0.63;;